createdAt,value
2019-04-22T00:08:03.235Z,6.54
2019-04-22T00:23:14.050Z,6.36
2019-04-22T00:38:17.262Z,6.06
2019-04-22T00:53:23.606Z,5.82
2019-04-22T01:08:30.597Z,5.43
2019-04-22T01:23:28.185Z,5.30
2019-04-22T01:38:31.462Z,4.97
2019-04-22T01:53:56.615Z,4.72
2019-04-22T02:08:55.250Z,4.52
2019-04-22T02:23:53.764Z,4.34
2019-04-22T02:39:05.591Z,4.08
2019-04-22T03:09:18.512Z,3.87
2019-04-22T03:24:33.337Z,3.83
2019-04-22T03:54:40.375Z,3.52
2019-04-22T04:40:05.741Z,3.36
2019-04-22T05:25:04.735Z,6.81
2019-04-22T05:39:56.539Z,8.87
2019-04-22T05:55:14.354Z,11.76
2019-04-22T06:10:21.345Z,14.50
2019-04-22T06:25:27.771Z,15.65
2019-04-22T06:55:36.820Z,17.23
2019-04-22T07:10:50.648Z,18.80
2019-04-22T07:40:51.827Z,19.23
2019-04-22T07:55:54.973Z,19.29
2019-04-22T08:11:08.156Z,20.47
2019-04-22T08:26:00.845Z,20.03
2019-04-22T08:41:17.792Z,20.47
2019-04-22T08:56:35.081Z,20.85
2019-04-22T09:11:26.705Z,20.92
2019-04-22T09:26:31.003Z,21.49
2019-04-22T09:41:37.497Z,22.00
2019-04-22T09:56:39.821Z,22.03
2019-04-22T10:11:56.382Z,22.90
2019-04-22T10:26:46.882Z,23.27
2019-04-22T10:41:28.416Z,23.72
2019-04-22T10:56:28.851Z,23.65
2019-04-22T11:11:41.072Z,23.84
2019-04-22T11:26:34.604Z,23.87
2019-04-22T11:41:35.994Z,23.22
2019-04-22T11:56:37.044Z,23.83
2019-04-22T12:11:36.887Z,23.87
2019-04-22T12:26:38.017Z,24.49
2019-04-22T12:41:38.374Z,24.76
2019-04-22T12:56:39.524Z,24.50
2019-04-22T13:11:40.759Z,25.02
2019-04-22T13:26:43.055Z,24.95
2019-04-22T13:41:48.736Z,24.98
2019-04-22T13:57:03.445Z,25.39
2019-04-22T14:12:00.136Z,25.33
2019-04-22T14:27:16.148Z,25.54
2019-04-22T14:42:21.707Z,24.71
2019-04-22T14:57:10.859Z,24.10
2019-04-22T15:12:21.703Z,23.40
2019-04-22T15:27:18.452Z,22.06
2019-04-22T15:42:27.619Z,20.99
2019-04-22T15:57:24.841Z,20.41
2019-04-22T16:12:32.122Z,20.10
2019-04-22T16:27:30.395Z,18.78
2019-04-22T16:42:42.645Z,17.89
2019-04-22T16:57:37.457Z,17.18
2019-04-22T17:12:48.752Z,16.78
2019-04-22T17:27:43.857Z,16.48
2019-04-22T17:43:07.133Z,16.11
2019-04-22T17:58:16.082Z,15.62
2019-04-22T18:13:27.844Z,15.41
2019-04-22T18:28:26.878Z,14.98
2019-04-22T18:43:28.886Z,14.60
2019-04-22T18:58:27.382Z,14.36
2019-04-22T19:28:48.394Z,13.55
2019-04-22T19:43:49.172Z,13.23
2019-04-22T19:58:49.286Z,12.97
2019-04-22T20:14:02.674Z,12.86
2019-04-22T20:29:04.523Z,12.75
2019-04-22T20:44:16.485Z,12.78
2019-04-22T20:59:14.961Z,12.86
2019-04-22T21:14:15.066Z,12.86
2019-04-22T21:29:20.784Z,13.08
2019-04-22T21:44:32.660Z,13.17
2019-04-22T21:59:40.491Z,13.32
2019-04-22T22:14:46.051Z,13.26
2019-04-22T22:30:27.099Z,13.28
2019-04-22T22:44:40.432Z,13.19
2019-04-22T22:59:59.378Z,13.03
2019-04-22T23:15:04.695Z,12.95
2019-04-22T23:30:01.798Z,12.74
2019-04-22T23:45:17.353Z,12.53
